createdAt,value
2019-04-24T00:00:47.928Z,18.80
2019-04-24T00:08:45.998Z,18.80
2019-04-24T00:11:38.042Z,18.80
2019-04-24T00:19:22.623Z,18.70
2019-04-24T00:21:51.779Z,18.70
2019-04-24T00:24:18.579Z,18.70
2019-04-24T00:26:47.689Z,18.70
2019-04-24T00:29:28.241Z,18.70
2019-04-24T00:31:52.169Z,18.70
2019-04-24T00:35:11.677Z,18.70
2019-04-24T00:39:27.311Z,18.70
2019-04-24T00:44:18.873Z,18.70
2019-04-24T00:49:27.567Z,18.70
2019-04-24T00:51:55.135Z,18.70
2019-04-24T00:57:03.190Z,18.70
2019-04-24T00:59:28.061Z,18.70
2019-04-24T01:10:56.488Z,18.70
2019-04-24T01:13:21.738Z,18.70
2019-04-24T01:16:14.766Z,18.70
2019-04-24T01:18:29.516Z,18.70
2019-04-24T01:21:02.751Z,18.60
2019-04-24T01:23:27.013Z,18.60
2019-04-24T01:26:11.791Z,18.60
2019-04-24T01:28:41.954Z,18.60
2019-04-24T01:31:22.973Z,18.60
2019-04-24T01:36:44.002Z,18.60
2019-04-24T01:39:55.766Z,18.60
2019-04-24T01:44:54.640Z,18.60
2019-04-24T01:54:49.013Z,18.60
2019-04-24T02:00:01.533Z,18.60
2019-04-24T02:02:35.054Z,18.60
2019-04-24T02:05:02.533Z,18.60
2019-04-24T02:10:43.244Z,18.60
2019-04-24T02:18:00.912Z,18.60
2019-04-24T02:20:45.043Z,18.60
2019-04-24T02:23:06.480Z,18.60
2019-04-24T02:25:46.727Z,18.60
2019-04-24T02:28:19.015Z,18.60
2019-04-24T02:31:13.420Z,18.60
2019-04-24T02:36:20.941Z,18.50
2019-04-24T02:41:34.920Z,18.50
2019-04-24T02:44:05.273Z,18.50
2019-04-24T02:46:27.121Z,18.50
2019-04-24T02:51:24.548Z,18.50
2019-04-24T02:59:04.434Z,18.50
2019-04-24T03:04:05.193Z,18.50
2019-04-24T03:11:45.317Z,18.50
2019-04-24T03:14:40.694Z,18.50
2019-04-24T03:22:23.596Z,18.50
2019-04-24T03:25:05.696Z,18.50
2019-04-24T03:29:54.434Z,18.50
2019-04-24T03:35:14.805Z,18.40
2019-04-24T03:40:27.566Z,18.50
2019-04-24T03:45:18.945Z,18.50
2019-04-24T03:51:06.354Z,18.40
2019-04-24T03:58:35.462Z,18.40
2019-04-24T04:00:59.692Z,18.40
2019-04-24T04:03:26.452Z,18.40
2019-04-24T04:05:50.226Z,18.40
2019-04-24T04:08:43.157Z,18.40
2019-04-24T04:16:06.474Z,18.40
2019-04-24T04:21:06.328Z,18.40
2019-04-24T04:26:42.814Z,18.40
2019-04-24T04:29:25.902Z,18.40
2019-04-24T04:34:52.606Z,18.40
2019-04-24T04:40:01.773Z,18.40
2019-04-24T04:42:41.650Z,18.40
2019-04-24T04:45:05.218Z,18.40
2019-04-24T04:48:02.404Z,18.40
2019-04-24T04:50:50.289Z,18.40
2019-04-24T05:19:38.797Z,18.40
2019-04-24T05:40:37.795Z,18.50
2019-04-24T05:45:41.573Z,18.60
2019-04-24T05:51:33.446Z,18.70
2019-04-24T05:53:33.506Z,18.70
2019-04-24T05:56:14.690Z,18.80
2019-04-24T05:58:28.078Z,18.80
2019-04-24T06:04:14.950Z,18.90
2019-04-24T06:12:02.624Z,19.00
2019-04-24T06:22:34.431Z,19.00
2019-04-24T06:25:00.277Z,19.10
2019-04-24T06:32:36.417Z,19.10
2019-04-24T06:38:27.951Z,19.20
2019-04-24T06:46:08.667Z,19.20
2019-04-24T06:48:39.377Z,19.30
2019-04-24T06:51:23.965Z,19.30
2019-04-24T06:53:53.444Z,19.30
2019-04-24T06:56:25.178Z,19.40
2019-04-24T06:58:42.353Z,19.40
2019-04-24T07:06:51.377Z,19.50
2019-04-24T07:09:31.101Z,19.50
2019-04-24T07:19:51.260Z,19.60
2019-04-24T07:24:59.190Z,19.60
2019-04-24T07:27:47.186Z,19.60
2019-04-24T07:30:37.374Z,19.70
2019-04-24T07:33:21.731Z,19.70
2019-04-24T07:35:59.934Z,19.70
2019-04-24T07:43:48.497Z,19.70
2019-04-24T07:51:39.034Z,19.70
2019-04-24T07:56:59.717Z,19.80
2019-04-24T08:04:46.944Z,19.80
2019-04-24T08:07:22.368Z,19.80
2019-04-24T08:10:17.308Z,19.80
2019-04-24T08:22:33.290Z,19.80
2019-04-24T08:27:36.779Z,19.80
2019-04-24T08:29:59.911Z,19.80
2019-04-24T08:35:08.629Z,19.90
2019-04-24T08:37:53.915Z,19.90
2019-04-24T08:40:33.020Z,19.90
2019-04-24T08:46:05.373Z,19.90
2019-04-24T08:48:49.167Z,19.90
2019-04-24T08:51:35.591Z,19.90
2019-04-24T08:58:53.930Z,19.90
2019-04-24T09:01:48.616Z,19.90
2019-04-24T09:04:47.054Z,20.00
2019-04-24T09:06:49.162Z,19.90
2019-04-24T09:09:23.593Z,19.90
2019-04-24T09:12:08.123Z,19.90
2019-04-24T09:14:53.311Z,19.90
2019-04-24T09:17:10.268Z,19.90
2019-04-24T09:19:57.442Z,19.90
2019-04-24T09:22:23.893Z,19.90
2019-04-24T09:25:09.543Z,19.90
2019-04-24T09:27:48.803Z,19.90
2019-04-24T09:30:20.614Z,19.90
2019-04-24T09:33:07.559Z,19.90
2019-04-24T09:36:10.613Z,20.00
2019-04-24T09:38:30.409Z,20.00
2019-04-24T09:43:53.858Z,20.00
2019-04-24T09:48:56.024Z,20.00
2019-04-24T09:51:30.645Z,20.00
2019-04-24T09:56:46.215Z,20.00
2019-04-24T09:59:21.941Z,20.00
2019-04-24T10:01:57.875Z,20.00
2019-04-24T10:07:22.602Z,20.00
2019-04-24T10:10:02.878Z,20.00
2019-04-24T10:17:42.989Z,20.10
2019-04-24T10:22:57.319Z,20.10
2019-04-24T10:25:22.083Z,20.10
2019-04-24T10:31:00.804Z,20.10
2019-04-24T10:34:04.391Z,20.10
2019-04-24T10:36:47.902Z,20.10
2019-04-24T10:39:28.355Z,20.10
2019-04-24T10:42:02.029Z,20.10
2019-04-24T10:44:33.215Z,20.10
2019-04-24T10:50:00.615Z,20.10
2019-04-24T10:52:20.683Z,20.10
2019-04-24T10:54:58.156Z,20.10
2019-04-24T10:57:42.267Z,20.10
2019-04-24T11:00:11.412Z,20.10
2019-04-24T11:08:47.643Z,20.20
2019-04-24T11:11:36.088Z,20.20
2019-04-24T11:17:31.556Z,20.20
2019-04-24T11:20:33.430Z,20.20
2019-04-24T11:23:14.990Z,20.20
2019-04-24T11:28:49.292Z,20.30
2019-04-24T11:34:33.858Z,20.30
2019-04-24T11:37:07.202Z,20.30
2019-04-24T11:42:37.111Z,20.30
2019-04-24T11:45:23.305Z,20.30
2019-04-24T11:48:04.691Z,20.40
2019-04-24T11:53:14.798Z,20.40
2019-04-24T11:56:01.834Z,20.40
2019-04-24T12:01:06.798Z,20.40
2019-04-24T12:04:06.126Z,20.40
2019-04-24T12:06:33.365Z,20.40
2019-04-24T12:08:57.704Z,20.40
2019-04-24T12:19:39.615Z,20.40
2019-04-24T12:22:03.992Z,20.40
2019-04-24T12:24:33.177Z,20.40
2019-04-24T12:26:57.698Z,20.50
2019-04-24T12:29:42.428Z,20.50
2019-04-24T12:32:30.824Z,20.50
2019-04-24T12:35:07.080Z,20.50
2019-04-24T12:37:37.618Z,20.50
2019-04-24T12:40:27.136Z,20.50
2019-04-24T12:45:21.246Z,20.50
2019-04-24T12:47:46.361Z,20.60
2019-04-24T12:50:45.484Z,20.50
2019-04-24T12:52:58.170Z,20.50
2019-04-24T12:55:35.807Z,20.60
2019-04-24T12:58:45.162Z,20.50
2019-04-24T13:01:20.430Z,20.60
2019-04-24T13:06:34.577Z,20.60
2019-04-24T13:12:03.544Z,20.60
2019-04-24T13:14:51.818Z,20.60
2019-04-24T13:21:56.313Z,20.60
2019-04-24T13:25:01.739Z,20.60
2019-04-24T13:28:23.915Z,20.60
2019-04-24T13:30:26.719Z,20.60
2019-04-24T13:33:18.267Z,20.60
2019-04-24T13:35:27.000Z,20.60
2019-04-24T13:40:39.931Z,20.60
2019-04-24T13:43:12.860Z,20.60
2019-04-24T13:50:38.383Z,20.70
2019-04-24T13:53:26.050Z,20.60
2019-04-24T13:58:16.097Z,20.60
2019-04-24T14:03:30.621Z,20.60
2019-04-24T14:05:48.973Z,20.60
2019-04-24T14:11:02.371Z,20.60
2019-04-24T14:13:04.563Z,20.60
2019-04-24T14:16:02.125Z,20.70
2019-04-24T14:18:29.996Z,20.60
2019-04-24T14:21:06.416Z,20.60
2019-04-24T14:23:40.012Z,20.60
2019-04-24T14:26:10.871Z,20.60
2019-04-24T14:31:10.683Z,20.60
2019-04-24T14:41:14.992Z,20.70
2019-04-24T14:44:34.008Z,21.20
2019-04-24T14:46:57.757Z,21.40
2019-04-24T14:49:28.159Z,21.60
2019-04-24T14:52:02.749Z,21.60
2019-04-24T14:54:21.426Z,21.70
2019-04-24T14:59:25.255Z,22.00
2019-04-24T15:02:03.098Z,22.10
2019-04-24T15:07:08.592Z,22.10
2019-04-24T15:12:10.676Z,22.30
2019-04-24T15:14:48.079Z,22.30
2019-04-24T15:17:37.308Z,22.30
2019-04-24T15:22:40.369Z,22.40
2019-04-24T15:25:34.342Z,22.30
2019-04-24T15:27:36.961Z,22.20
2019-04-24T15:30:09.244Z,22.30
2019-04-24T15:32:40.072Z,22.20
2019-04-24T15:35:20.721Z,22.30
2019-04-24T15:37:43.434Z,22.30
2019-04-24T15:40:29.384Z,22.10
2019-04-24T15:42:59.893Z,21.80
2019-04-24T15:47:58.760Z,21.50
2019-04-24T15:52:17.547Z,21.30
2019-04-24T15:54:46.879Z,21.20
2019-04-24T15:57:17.245Z,21.10
2019-04-24T16:00:06.775Z,21.10
2019-04-24T16:04:56.369Z,21.00
2019-04-24T16:07:38.253Z,20.90
2019-04-24T16:10:15.666Z,20.90
2019-04-24T16:12:45.054Z,20.80
2019-04-24T16:15:51.265Z,20.80
2019-04-24T16:18:19.155Z,20.80
2019-04-24T16:21:10.363Z,20.70
2019-04-24T16:23:28.971Z,20.70
2019-04-24T16:25:53.365Z,20.70
2019-04-24T16:28:34.795Z,20.70
2019-04-24T16:30:57.202Z,20.70
2019-04-24T16:33:32.676Z,20.60
2019-04-24T16:36:05.374Z,20.60
2019-04-24T16:41:07.072Z,20.60
2019-04-24T16:44:05.292Z,20.60
2019-04-24T16:48:58.315Z,20.60
2019-04-24T16:51:36.627Z,20.60
2019-04-24T16:54:06.085Z,20.60
2019-04-24T17:09:09.002Z,20.50
2019-04-24T17:11:39.109Z,20.50
2019-04-24T17:14:27.664Z,20.50
2019-04-24T17:20:14.786Z,20.50
2019-04-24T17:22:42.881Z,20.50
2019-04-24T17:25:21.351Z,20.50
2019-04-24T17:30:12.653Z,20.50
2019-04-24T17:37:13.424Z,20.40
2019-04-24T17:39:49.030Z,20.40
2019-04-24T17:42:31.659Z,20.40
2019-04-24T17:45:22.255Z,20.40
2019-04-24T17:50:31.794Z,20.40
2019-04-24T17:52:58.939Z,20.40
2019-04-24T17:55:20.311Z,20.40
2019-04-24T17:59:57.481Z,20.40
2019-04-24T18:02:27.216Z,20.30
2019-04-24T18:04:56.541Z,20.30
2019-04-24T18:07:27.293Z,20.30
2019-04-24T18:09:56.400Z,20.30
2019-04-24T18:15:04.757Z,20.30
2019-04-24T18:17:34.245Z,20.30
2019-04-24T18:20:04.530Z,20.30
2019-04-24T18:22:38.648Z,20.30
2019-04-24T18:25:29.638Z,20.30
2019-04-24T18:28:01.435Z,20.30
2019-04-24T18:30:32.724Z,20.30
2019-04-24T18:33:03.901Z,20.30
2019-04-24T18:35:33.679Z,20.30
2019-04-24T18:38:10.724Z,20.30
2019-04-24T18:40:34.895Z,20.30
2019-04-24T18:43:04.787Z,20.30
2019-04-24T18:45:34.193Z,20.30
2019-04-24T18:48:05.074Z,20.20
2019-04-24T18:50:34.698Z,20.20
2019-04-24T18:53:04.714Z,20.20
2019-04-24T18:55:34.789Z,20.20
2019-04-24T18:58:04.207Z,20.20
2019-04-24T19:00:33.510Z,20.20
2019-04-24T19:03:02.735Z,20.20
2019-04-24T19:05:32.523Z,20.20
2019-04-24T19:08:01.905Z,20.20
2019-04-24T19:10:32.104Z,20.20
2019-04-24T19:13:01.332Z,20.20
2019-04-24T19:15:32.174Z,20.20
2019-04-24T19:18:01.758Z,20.20
2019-04-24T19:20:31.900Z,20.20
2019-04-24T19:23:06.327Z,20.20
2019-04-24T19:25:32.901Z,20.20
2019-04-24T19:28:02.103Z,20.20
2019-04-24T19:30:31.922Z,20.20
2019-04-24T19:33:01.779Z,20.20
2019-04-24T19:35:31.518Z,20.20
2019-04-24T19:38:01.372Z,20.20
2019-04-24T19:40:37.659Z,20.20
2019-04-24T19:43:01.801Z,20.20
2019-04-24T19:45:31.420Z,20.10
2019-04-24T19:48:01.480Z,20.20
2019-04-24T19:50:32.138Z,20.10
2019-04-24T19:53:01.469Z,20.20
2019-04-24T19:55:32.187Z,20.10
2019-04-24T19:58:03.165Z,20.10
2019-04-24T20:00:32.705Z,20.10
2019-04-24T20:03:02.113Z,20.10
2019-04-24T20:05:32.148Z,20.10
2019-04-24T20:08:02.056Z,20.10
2019-04-24T20:10:39.011Z,20.10
2019-04-24T20:13:08.763Z,20.10
2019-04-24T20:15:38.185Z,20.10
2019-04-24T20:18:07.848Z,20.10
2019-04-24T20:20:37.261Z,20.10
2019-04-24T20:23:06.659Z,20.00
2019-04-24T20:25:35.844Z,20.10
2019-04-24T20:28:05.439Z,20.00
2019-04-24T20:30:34.649Z,20.00
2019-04-24T20:33:04.057Z,20.00
2019-04-24T20:35:33.384Z,20.00
2019-04-24T20:38:03.048Z,20.00
2019-04-24T20:40:32.407Z,20.00
2019-04-24T20:43:02.272Z,20.00
2019-04-24T20:45:32.460Z,20.00
2019-04-24T20:48:01.698Z,20.00
2019-04-24T20:50:31.854Z,20.00
2019-04-24T20:53:02.295Z,20.00
2019-04-24T20:55:32.655Z,20.00
2019-04-24T20:58:02.135Z,20.00
2019-04-24T21:00:31.779Z,19.90
2019-04-24T21:03:02.919Z,20.00
2019-04-24T21:05:52.391Z,20.00
2019-04-24T21:08:35.094Z,20.00
2019-04-24T21:11:04.636Z,20.00
2019-04-24T21:13:33.796Z,19.90
2019-04-24T21:16:02.929Z,20.00
2019-04-24T21:18:32.642Z,19.90
2019-04-24T21:21:01.957Z,19.90
2019-04-24T21:23:33.252Z,19.90
2019-04-24T21:26:01.838Z,19.90
2019-04-24T21:28:31.943Z,19.90
2019-04-24T21:31:01.267Z,19.90
2019-04-24T21:33:30.277Z,19.90
2019-04-24T21:35:59.429Z,19.90
2019-04-24T21:38:29.287Z,19.90
2019-04-24T21:40:58.668Z,19.90
2019-04-24T21:43:30.103Z,19.90
2019-04-24T21:45:58.906Z,19.90
2019-04-24T21:48:28.130Z,19.90
2019-04-24T21:50:57.288Z,19.80
2019-04-24T21:53:26.657Z,19.90
2019-04-24T21:55:56.037Z,19.80
2019-04-24T21:58:25.197Z,19.90
2019-04-24T22:01:19.762Z,19.90
2019-04-24T22:04:19.924Z,19.90
2019-04-24T22:07:02.397Z,19.90
2019-04-24T22:09:33.470Z,19.90
2019-04-24T22:12:03.129Z,19.80
2019-04-24T22:14:32.862Z,19.80
2019-04-24T22:17:02.939Z,19.90
2019-04-24T22:19:32.023Z,19.80
2019-04-24T22:22:16.981Z,19.80
2019-04-24T22:25:05.004Z,19.80
2019-04-24T22:27:37.320Z,19.80
2019-04-24T22:30:10.060Z,19.80
2019-04-24T22:32:39.693Z,19.80
2019-04-24T22:35:29.263Z,19.80
2019-04-24T22:37:58.398Z,19.80
2019-04-24T22:40:34.283Z,19.80
2019-04-24T22:43:03.796Z,19.80
2019-04-24T22:45:32.945Z,19.70
2019-04-24T22:48:02.198Z,19.80
2019-04-24T22:50:32.492Z,19.80
2019-04-24T22:53:02.440Z,19.80
2019-04-24T22:55:33.356Z,19.80
2019-04-24T22:58:02.265Z,19.70
2019-04-24T23:00:36.998Z,19.80
2019-04-24T23:03:06.203Z,19.70
2019-04-24T23:05:35.643Z,19.70
2019-04-24T23:08:23.978Z,19.70
2019-04-24T23:11:12.264Z,19.70
2019-04-24T23:19:51.365Z,19.70
2019-04-24T23:22:56.086Z,19.70
2019-04-24T23:26:03.376Z,19.70
2019-04-24T23:32:01.968Z,19.70
2019-04-24T23:34:52.202Z,19.70
2019-04-24T23:37:41.895Z,19.70
2019-04-24T23:40:32.149Z,19.70
2019-04-24T23:43:38.326Z,19.70
2019-04-24T23:46:26.928Z,19.60
2019-04-24T23:49:15.227Z,19.70
2019-04-24T23:55:29.081Z,19.60
